Rocky Ridge, Missouri
Current Conditions -  °F | °C
As of 10:15 AM on Friday 24 Oct 2014 (Local Time) from KSAR Reporting Station
Overcast Overcast  
Wind Chill: 57°   Ceiling: 700
Heat Index: 57°   Visibility: 10mi
Dew Point: 54°   Wind: 3mph
Humidity: 87%   Direction: 290°WNW
Pressure: 30.14"   Gusts: NA
Location:  37.9762°N, 90.0499°W
Report Text: KSAR 241515Z AUTO 29003KT 10SM OVC007 14/12 A3014 RMK AO2 T01410120
Loading
Personal Weather Stations






























Interactive Weather Map
Tropical Storm Tracking
New forecast layout! Learn more

10-Day Weather Forecast

Advertisements
Track Severe Weather on mobile